sensor_id;sensor_type;location;lat;lon;timestamp;temperature;humidity
56184;DHT22;42086;53.170;6.980;2022-09-09T00:07:07;14.60;99.90
56184;DHT22;42086;53.170;6.980;2022-09-09T00:15:13;14.60;99.90
56184;DHT22;42086;53.170;6.980;2022-09-09T00:18:09;14.50;99.90
56184;DHT22;42086;53.170;6.980;2022-09-09T00:21:33;14.50;99.90
56184;DHT22;42086;53.170;6.980;2022-09-09T00:23:54;14.40;99.90
56184;DHT22;42086;53.170;6.980;2022-09-09T00:26:34;14.40;99.90
56184;DHT22;42086;53.170;6.980;2022-09-09T00:31:39;14.40;99.90
56184;DHT22;42086;53.170;6.980;2022-09-09T00:34:14;14.30;99.90
56184;DHT22;42086;53.170;6.980;2022-09-09T00:36:42;14.20;99.90
56184;DHT22;42086;53.170;6.980;2022-09-09T00:39:36;14.20;99.90
56184;DHT22;42086;53.170;6.980;2022-09-09T00:47:50;14.20;99.90
56184;DHT22;42086;53.170;6.980;2022-09-09T00:55:42;14.20;99.90
56184;DHT22;42086;53.170;6.980;2022-09-09T00:58:10;14.20;99.90
56184;DHT22;42086;53.170;6.980;2022-09-09T01:00:57;14.10;99.90
56184;DHT22;42086;53.170;6.980;2022-09-09T01:06:30;14.00;99.90
56184;DHT22;42086;53.170;6.980;2022-09-09T01:09:22;14.00;99.90
56184;DHT22;42086;53.170;6.980;2022-09-09T01:12:14;14.00;99.90
56184;DHT22;42086;53.170;6.980;2022-09-09T01:23:10;14.00;99.90
56184;DHT22;42086;53.170;6.980;2022-09-09T01:28:14;14.00;99.90
56184;DHT22;42086;53.170;6.980;2022-09-09T01:30:42;14.00;99.90
56184;DHT22;42086;53.170;6.980;2022-09-09T01:33:13;13.90;99.90
56184;DHT22;42086;53.170;6.980;2022-09-09T01:35:53;13.90;99.90
56184;DHT22;42086;53.170;6.980;2022-09-09T01:38:21;13.90;99.90
56184;DHT22;42086;53.170;6.980;2022-09-09T01:40:48;13.90;99.90
56184;DHT22;42086;53.170;6.980;2022-09-09T01:43:14;13.90;99.90
56184;DHT22;42086;53.170;6.980;2022-09-09T01:45:41;13.90;99.90
56184;DHT22;42086;53.170;6.980;2022-09-09T01:48:09;13.80;99.90
56184;DHT22;42086;53.170;6.980;2022-09-09T01:50:35;13.80;99.90
56184;DHT22;42086;53.170;6.980;2022-09-09T01:53:01;13.80;99.90
56184;DHT22;42086;53.170;6.980;2022-09-09T01:55:31;13.80;99.90
56184;DHT22;42086;53.170;6.980;2022-09-09T01:58:20;13.80;99.90
56184;DHT22;42086;53.170;6.980;2022-09-09T02:01:04;13.80;99.90
56184;DHT22;42086;53.170;6.980;2022-09-09T02:03:32;13.80;99.90
56184;DHT22;42086;53.170;6.980;2022-09-09T02:08:49;13.80;99.90
56184;DHT22;42086;53.170;6.980;2022-09-09T02:11:18;13.80;99.90
56184;DHT22;42086;53.170;6.980;2022-09-09T02:13:47;13.70;99.90
56184;DHT22;42086;53.170;6.980;2022-09-09T02:16:26;13.80;99.90
56184;DHT22;42086;53.170;6.980;2022-09-09T02:21:23;13.80;99.90
56184;DHT22;42086;53.170;6.980;2022-09-09T02:23:50;13.80;99.90
56184;DHT22;42086;53.170;6.980;2022-09-09T02:26:19;13.80;99.90
56184;DHT22;42086;53.170;6.980;2022-09-09T02:28:50;13.80;99.90
56184;DHT22;42086;53.170;6.980;2022-09-09T02:31:20;13.80;99.90
56184;DHT22;42086;53.170;6.980;2022-09-09T02:33:52;13.80;99.90
56184;DHT22;42086;53.170;6.980;2022-09-09T02:36:21;13.80;99.90
56184;DHT22;42086;53.170;6.980;2022-09-09T02:38:48;13.80;99.90
56184;DHT22;42086;53.170;6.980;2022-09-09T02:41:21;13.80;99.90
56184;DHT22;42086;53.170;6.980;2022-09-09T02:43:48;13.80;99.90
56184;DHT22;42086;53.170;6.980;2022-09-09T02:46:24;13.80;99.90
56184;DHT22;42086;53.170;6.980;2022-09-09T02:49:09;13.80;99.90
56184;DHT22;42086;53.170;6.980;2022-09-09T02:51:53;13.80;99.90
56184;DHT22;42086;53.170;6.980;2022-09-09T02:54:31;13.80;99.90
56184;DHT22;42086;53.170;6.980;2022-09-09T02:59:38;13.90;99.90
56184;DHT22;42086;53.170;6.980;2022-09-09T03:02:05;13.90;99.90
56184;DHT22;42086;53.170;6.980;2022-09-09T03:04:31;13.90;99.90
56184;DHT22;42086;53.170;6.980;2022-09-09T03:06:58;14.00;99.90
56184;DHT22;42086;53.170;6.980;2022-09-09T03:09:24;14.00;99.90
56184;DHT22;42086;53.170;6.980;2022-09-09T03:11:52;14.00;99.90
56184;DHT22;42086;53.170;6.980;2022-09-09T03:14:18;14.10;99.90
56184;DHT22;42086;53.170;6.980;2022-09-09T03:16:47;14.10;99.90
56184;DHT22;42086;53.170;6.980;2022-09-09T03:19:13;14.10;99.90
56184;DHT22;42086;53.170;6.980;2022-09-09T03:21:39;14.10;99.90
56184;DHT22;42086;53.170;6.980;2022-09-09T03:24:05;14.20;99.90
56184;DHT22;42086;53.170;6.980;2022-09-09T03:26:32;14.30;99.90
56184;DHT22;42086;53.170;6.980;2022-09-09T03:28:58;14.30;99.90
56184;DHT22;42086;53.170;6.980;2022-09-09T03:31:26;14.40;99.90
56184;DHT22;42086;53.170;6.980;2022-09-09T03:33:59;14.40;99.90
56184;DHT22;42086;53.170;6.980;2022-09-09T03:36:26;14.40;99.90
56184;DHT22;42086;53.170;6.980;2022-09-09T03:38:52;14.50;99.90
56184;DHT22;42086;53.170;6.980;2022-09-09T03:41:20;14.10;99.90
56184;DHT22;42086;53.170;6.980;2022-09-09T03:43:53;14.50;99.90
56184;DHT22;42086;53.170;6.980;2022-09-09T03:46:20;14.60;99.90
56184;DHT22;42086;53.170;6.980;2022-09-09T03:48:47;14.60;99.90
56184;DHT22;42086;53.170;6.980;2022-09-09T03:51:13;14.60;99.90
56184;DHT22;42086;53.170;6.980;2022-09-09T03:53:39;14.60;99.90
56184;DHT22;42086;53.170;6.980;2022-09-09T03:56:06;14.60;99.90
56184;DHT22;42086;53.170;6.980;2022-09-09T03:58:33;14.60;99.90
56184;DHT22;42086;53.170;6.980;2022-09-09T04:03:34;14.70;99.90
56184;DHT22;42086;53.170;6.980;2022-09-09T04:06:02;14.70;99.90
56184;DHT22;42086;53.170;6.980;2022-09-09T04:08:29;14.70;99.90
56184;DHT22;42086;53.170;6.980;2022-09-09T04:10:57;14.70;99.90
56184;DHT22;42086;53.170;6.980;2022-09-09T04:13:24;14.70;99.90
56184;DHT22;42086;53.170;6.980;2022-09-09T04:15:52;14.70;99.90
56184;DHT22;42086;53.170;6.980;2022-09-09T04:18:18;14.80;99.90
56184;DHT22;42086;53.170;6.980;2022-09-09T04:20:49;14.80;99.90
56184;DHT22;42086;53.170;6.980;2022-09-09T04:23:16;14.80;99.90
56184;DHT22;42086;53.170;6.980;2022-09-09T04:25:46;14.80;99.90
56184;DHT22;42086;53.170;6.980;2022-09-09T04:28:13;14.80;99.90
56184;DHT22;42086;53.170;6.980;2022-09-09T04:30:40;14.80;99.90
56184;DHT22;42086;53.170;6.980;2022-09-09T04:33:06;14.80;99.90
56184;DHT22;42086;53.170;6.980;2022-09-09T04:35:33;14.80;99.90
56184;DHT22;42086;53.170;6.980;2022-09-09T04:37:59;14.80;99.90
56184;DHT22;42086;53.170;6.980;2022-09-09T04:40:25;14.80;99.90
56184;DHT22;42086;53.170;6.980;2022-09-09T04:42:51;14.80;99.90
56184;DHT22;42086;53.170;6.980;2022-09-09T04:45:17;14.80;99.90
56184;DHT22;42086;53.170;6.980;2022-09-09T04:47:44;14.80;99.90
56184;DHT22;42086;53.170;6.980;2022-09-09T04:50:10;14.80;99.90
56184;DHT22;42086;53.170;6.980;2022-09-09T04:52:35;14.80;99.90
56184;DHT22;42086;53.170;6.980;2022-09-09T04:55:02;14.80;99.90
56184;DHT22;42086;53.170;6.980;2022-09-09T04:57:27;14.80;99.90
56184;DHT22;42086;53.170;6.980;2022-09-09T04:59:54;14.80;99.90
56184;DHT22;42086;53.170;6.980;2022-09-09T05:02:20;14.80;99.90
56184;DHT22;42086;53.170;6.980;2022-09-09T05:04:46;14.80;99.90
56184;DHT22;42086;53.170;6.980;2022-09-09T05:07:12;14.80;99.90
56184;DHT22;42086;53.170;6.980;2022-09-09T05:09:39;14.70;99.90
56184;DHT22;42086;53.170;6.980;2022-09-09T05:12:05;14.70;99.90
56184;DHT22;42086;53.170;6.980;2022-09-09T05:14:31;14.70;99.90
56184;DHT22;42086;53.170;6.980;2022-09-09T05:16:57;14.70;99.90
56184;DHT22;42086;53.170;6.980;2022-09-09T05:19:23;14.70;99.90
56184;DHT22;42086;53.170;6.980;2022-09-09T05:21:50;14.70;99.90
56184;DHT22;42086;53.170;6.980;2022-09-09T05:24:16;14.70;99.90
56184;DHT22;42086;53.170;6.980;2022-09-09T05:26:42;14.70;99.90
56184;DHT22;42086;53.170;6.980;2022-09-09T05:29:09;14.70;99.90
56184;DHT22;42086;53.170;6.980;2022-09-09T05:31:35;14.70;99.90
56184;DHT22;42086;53.170;6.980;2022-09-09T05:34:00;14.70;99.90
56184;DHT22;42086;53.170;6.980;2022-09-09T05:36:26;14.70;99.90
56184;DHT22;42086;53.170;6.980;2022-09-09T05:38:52;14.70;99.90
56184;DHT22;42086;53.170;6.980;2022-09-09T05:41:19;14.70;99.90
56184;DHT22;42086;53.170;6.980;2022-09-09T05:43:46;14.60;99.90
56184;DHT22;42086;53.170;6.980;2022-09-09T05:46:20;14.60;99.90
56184;DHT22;42086;53.170;6.980;2022-09-09T05:48:47;14.70;99.90
56184;DHT22;42086;53.170;6.980;2022-09-09T05:51:24;14.70;99.90
56184;DHT22;42086;53.170;6.980;2022-09-09T05:53:50;14.70;99.90
56184;DHT22;42086;53.170;6.980;2022-09-09T05:56:22;14.70;99.90
56184;DHT22;42086;53.170;6.980;2022-09-09T05:58:51;14.70;99.90
56184;DHT22;42086;53.170;6.980;2022-09-09T06:01:28;14.70;99.90
56184;DHT22;42086;53.170;6.980;2022-09-09T06:03:54;14.80;99.90
56184;DHT22;42086;53.170;6.980;2022-09-09T06:06:25;14.80;99.90
56184;DHT22;42086;53.170;6.980;2022-09-09T06:08:54;14.80;99.90
56184;DHT22;42086;53.170;6.980;2022-09-09T06:11:28;14.80;99.90
56184;DHT22;42086;53.170;6.980;2022-09-09T06:13:57;14.80;99.90
56184;DHT22;42086;53.170;6.980;2022-09-09T06:16:25;14.80;99.90
56184;DHT22;42086;53.170;6.980;2022-09-09T06:18:53;14.80;99.90
56184;DHT22;42086;53.170;6.980;2022-09-09T06:21:27;14.90;99.90
56184;DHT22;42086;53.170;6.980;2022-09-09T06:23:53;14.90;99.90
56184;DHT22;42086;53.170;6.980;2022-09-09T06:26:24;14.90;99.90
56184;DHT22;42086;53.170;6.980;2022-09-09T06:28:52;14.90;99.90
56184;DHT22;42086;53.170;6.980;2022-09-09T06:31:21;15.00;99.90
56184;DHT22;42086;53.170;6.980;2022-09-09T06:33:49;15.00;99.90
56184;DHT22;42086;53.170;6.980;2022-09-09T06:36:20;15.00;99.90
56184;DHT22;42086;53.170;6.980;2022-09-09T06:38:46;15.10;99.90
56184;DHT22;42086;53.170;6.980;2022-09-09T06:41:14;15.20;99.90
56184;DHT22;42086;53.170;6.980;2022-09-09T06:43:41;15.20;99.90
56184;DHT22;42086;53.170;6.980;2022-09-09T06:46:28;15.30;99.90
56184;DHT22;42086;53.170;6.980;2022-09-09T06:48:56;15.30;99.90
56184;DHT22;42086;53.170;6.980;2022-09-09T06:51:25;15.40;99.90
56184;DHT22;42086;53.170;6.980;2022-09-09T06:53:53;15.40;99.90
56184;DHT22;42086;53.170;6.980;2022-09-09T06:56:22;15.50;99.90
56184;DHT22;42086;53.170;6.980;2022-09-09T06:58:50;15.60;99.90
56184;DHT22;42086;53.170;6.980;2022-09-09T07:01:18;15.70;99.90
56184;DHT22;42086;53.170;6.980;2022-09-09T07:03:50;15.80;99.90
56184;DHT22;42086;53.170;6.980;2022-09-09T07:06:22;15.80;99.90
56184;DHT22;42086;53.170;6.980;2022-09-09T07:08:54;15.90;99.90
56184;DHT22;42086;53.170;6.980;2022-09-09T07:11:24;16.00;99.90
56184;DHT22;42086;53.170;6.980;2022-09-09T07:13:51;16.10;99.90
56184;DHT22;42086;53.170;6.980;2022-09-09T07:16:19;16.20;99.90
56184;DHT22;42086;53.170;6.980;2022-09-09T07:18:47;16.50;99.90
56184;DHT22;42086;53.170;6.980;2022-09-09T07:21:14;16.70;99.90
56184;DHT22;42086;53.170;6.980;2022-09-09T07:23:41;16.80;99.90
56184;DHT22;42086;53.170;6.980;2022-09-09T07:26:12;16.80;99.90
56184;DHT22;42086;53.170;6.980;2022-09-09T07:28:39;16.80;99.90
56184;DHT22;42086;53.170;6.980;2022-09-09T07:31:07;16.80;99.90
56184;DHT22;42086;53.170;6.980;2022-09-09T07:33:34;16.70;99.90
56184;DHT22;42086;53.170;6.980;2022-09-09T07:36:09;16.80;99.90
56184;DHT22;42086;53.170;6.980;2022-09-09T07:38:40;16.80;99.90
56184;DHT22;42086;53.170;6.980;2022-09-09T07:41:09;16.90;99.90
56184;DHT22;42086;53.170;6.980;2022-09-09T07:43:44;17.00;99.90
56184;DHT22;42086;53.170;6.980;2022-09-09T07:46:12;17.00;99.90
56184;DHT22;42086;53.170;6.980;2022-09-09T07:48:43;17.00;99.90
56184;DHT22;42086;53.170;6.980;2022-09-09T07:51:12;17.10;99.90
56184;DHT22;42086;53.170;6.980;2022-09-09T07:53:43;17.20;99.90
56184;DHT22;42086;53.170;6.980;2022-09-09T07:56:11;17.30;99.90
56184;DHT22;42086;53.170;6.980;2022-09-09T07:58:39;17.40;99.90
56184;DHT22;42086;53.170;6.980;2022-09-09T08:01:17;17.60;99.90
56184;DHT22;42086;53.170;6.980;2022-09-09T08:03:46;18.00;99.90
56184;DHT22;42086;53.170;6.980;2022-09-09T08:06:13;18.10;99.90
56184;DHT22;42086;53.170;6.980;2022-09-09T08:08:39;18.20;99.90
56184;DHT22;42086;53.170;6.980;2022-09-09T08:11:11;18.40;99.90
56184;DHT22;42086;53.170;6.980;2022-09-09T08:13:38;18.50;99.90
56184;DHT22;42086;53.170;6.980;2022-09-09T08:16:13;18.40;99.90
56184;DHT22;42086;53.170;6.980;2022-09-09T08:18:40;18.50;99.90
56184;DHT22;42086;53.170;6.980;2022-09-09T08:21:14;18.40;99.90
56184;DHT22;42086;53.170;6.980;2022-09-09T08:23:41;18.20;99.90
56184;DHT22;42086;53.170;6.980;2022-09-09T08:26:17;18.30;99.90
56184;DHT22;42086;53.170;6.980;2022-09-09T08:28:52;18.20;99.90
56184;DHT22;42086;53.170;6.980;2022-09-09T08:31:23;18.30;99.90
56184;DHT22;42086;53.170;6.980;2022-09-09T08:33:49;18.40;99.90
56184;DHT22;42086;53.170;6.980;2022-09-09T08:36:18;18.30;99.90
56184;DHT22;42086;53.170;6.980;2022-09-09T08:38:47;18.30;99.90
56184;DHT22;42086;53.170;6.980;2022-09-09T08:50:16;18.30;99.90
56184;DHT22;42086;53.170;6.980;2022-09-09T08:55:45;18.40;99.90
56184;DHT22;42086;53.170;6.980;2022-09-09T08:58:19;18.50;99.90
56184;DHT22;42086;53.170;6.980;2022-09-09T09:06:55;18.40;99.90
56184;DHT22;42086;53.170;6.980;2022-09-09T09:09:38;18.50;99.90
56184;DHT22;42086;53.170;6.980;2022-09-09T09:12:19;18.90;99.90
56184;DHT22;42086;53.170;6.980;2022-09-09T09:14:47;19.10;99.90
56184;DHT22;42086;53.170;6.980;2022-09-09T09:17:18;19.50;99.90
56184;DHT22;42086;53.170;6.980;2022-09-09T09:19:46;19.70;99.90
56184;DHT22;42086;53.170;6.980;2022-09-09T09:22:21;20.10;99.90
56184;DHT22;42086;53.170;6.980;2022-09-09T09:27:44;20.20;99.90
56184;DHT22;42086;53.170;6.980;2022-09-09T09:30:18;20.10;99.90
56184;DHT22;42086;53.170;6.980;2022-09-09T09:33:41;20.00;99.90
56184;DHT22;42086;53.170;6.980;2022-09-09T09:35:49;20.00;99.90
56184;DHT22;42086;53.170;6.980;2022-09-09T09:38:20;20.20;99.90
56184;DHT22;42086;53.170;6.980;2022-09-09T09:40:58;20.30;99.90
56184;DHT22;42086;53.170;6.980;2022-09-09T09:43:28;20.20;99.90
56184;DHT22;42086;53.170;6.980;2022-09-09T09:45:55;20.10;99.90
56184;DHT22;42086;53.170;6.980;2022-09-09T09:48:24;19.80;99.90
56184;DHT22;42086;53.170;6.980;2022-09-09T09:50:53;19.70;99.90
56184;DHT22;42086;53.170;6.980;2022-09-09T09:53:30;19.70;99.90
56184;DHT22;42086;53.170;6.980;2022-09-09T09:56:05;19.80;99.90
56184;DHT22;42086;53.170;6.980;2022-09-09T09:58:46;19.80;99.90
56184;DHT22;42086;53.170;6.980;2022-09-09T10:01:29;20.00;99.90
56184;DHT22;42086;53.170;6.980;2022-09-09T10:04:14;20.20;99.90
56184;DHT22;42086;53.170;6.980;2022-09-09T10:06:41;20.20;99.90
56184;DHT22;42086;53.170;6.980;2022-09-09T10:09:27;20.20;99.90
56184;DHT22;42086;53.170;6.980;2022-09-09T10:23:23;21.10;99.90
56184;DHT22;42086;53.170;6.980;2022-09-09T10:29:24;20.50;99.90
56184;DHT22;42086;53.170;6.980;2022-09-09T10:32:06;20.80;99.90
56184;DHT22;42086;53.170;6.980;2022-09-09T10:34:56;20.90;99.90
56184;DHT22;42086;53.170;6.980;2022-09-09T10:42:41;21.30;99.90
56184;DHT22;42086;53.170;6.980;2022-09-09T10:45:23;21.40;99.90
56184;DHT22;42086;53.170;6.980;2022-09-09T10:48:10;21.40;99.90
56184;DHT22;42086;53.170;6.980;2022-09-09T10:51:01;21.20;99.90
56184;DHT22;42086;53.170;6.980;2022-09-09T10:56:23;21.20;99.90
56184;DHT22;42086;53.170;6.980;2022-09-09T10:59:18;21.40;99.90
56184;DHT22;42086;53.170;6.980;2022-09-09T11:01:51;21.30;99.90
56184;DHT22;42086;53.170;6.980;2022-09-09T11:04:28;21.60;99.90
56184;DHT22;42086;53.170;6.980;2022-09-09T11:07:01;21.40;99.90
56184;DHT22;42086;53.170;6.980;2022-09-09T11:09:35;21.60;99.90
56184;DHT22;42086;53.170;6.980;2022-09-09T11:12:03;21.50;99.90
56184;DHT22;42086;53.170;6.980;2022-09-09T11:14:41;21.70;99.90
56184;DHT22;42086;53.170;6.980;2022-09-09T11:17:18;21.80;99.90
56184;DHT22;42086;53.170;6.980;2022-09-09T11:19:46;21.80;99.90
56184;DHT22;42086;53.170;6.980;2022-09-09T11:25:01;22.50;99.90
56184;DHT22;42086;53.170;6.980;2022-09-09T11:33:41;22.10;99.90
56184;DHT22;42086;53.170;6.980;2022-09-09T11:41:50;22.00;99.90
56184;DHT22;42086;53.170;6.980;2022-09-09T11:44:28;21.90;99.90
56184;DHT22;42086;53.170;6.980;2022-09-09T11:46:55;21.70;99.90
56184;DHT22;42086;53.170;6.980;2022-09-09T11:49:49;21.60;99.90
56184;DHT22;42086;53.170;6.980;2022-09-09T11:52:25;21.40;99.90
56184;DHT22;42086;53.170;6.980;2022-09-09T11:54:54;21.50;99.90
56184;DHT22;42086;53.170;6.980;2022-09-09T11:57:31;21.80;99.90
56184;DHT22;42086;53.170;6.980;2022-09-09T11:59:58;21.80;99.90
56184;DHT22;42086;53.170;6.980;2022-09-09T12:02:27;21.70;99.90
56184;DHT22;42086;53.170;6.980;2022-09-09T12:05:12;21.40;99.90
56184;DHT22;42086;53.170;6.980;2022-09-09T12:07:45;21.10;99.90
56184;DHT22;42086;53.170;6.980;2022-09-09T12:13:23;21.70;99.90
56184;DHT22;42086;53.170;6.980;2022-09-09T12:15:51;22.20;99.90
56184;DHT22;42086;53.170;6.980;2022-09-09T12:18:31;22.30;99.90
56184;DHT22;42086;53.170;6.980;2022-09-09T12:21:18;21.70;99.90
56184;DHT22;42086;53.170;6.980;2022-09-09T12:23:50;21.60;99.90
56184;DHT22;42086;53.170;6.980;2022-09-09T12:29:14;21.40;99.90
56184;DHT22;42086;53.170;6.980;2022-09-09T12:34:40;21.40;99.90
56184;DHT22;42086;53.170;6.980;2022-09-09T12:37:38;21.60;99.90
56184;DHT22;42086;53.170;6.980;2022-09-09T12:40:29;21.70;99.90
56184;DHT22;42086;53.170;6.980;2022-09-09T12:42:55;22.20;99.90
56184;DHT22;42086;53.170;6.980;2022-09-09T12:45:26;22.40;99.90
56184;DHT22;42086;53.170;6.980;2022-09-09T12:48:00;22.10;99.90
56184;DHT22;42086;53.170;6.980;2022-09-09T12:50:29;22.10;99.90
56184;DHT22;42086;53.170;6.980;2022-09-09T12:52:57;22.00;99.90
56184;DHT22;42086;53.170;6.980;2022-09-09T12:55:28;21.70;99.90
56184;DHT22;42086;53.170;6.980;2022-09-09T12:57:56;21.80;99.90
56184;DHT22;42086;53.170;6.980;2022-09-09T13:00:24;22.10;99.90
56184;DHT22;42086;53.170;6.980;2022-09-09T13:03:03;23.20;99.90
56184;DHT22;42086;53.170;6.980;2022-09-09T13:05:35;24.20;99.90
56184;DHT22;42086;53.170;6.980;2022-09-09T13:08:04;24.50;99.90
56184;DHT22;42086;53.170;6.980;2022-09-09T13:10:35;25.40;99.90
56184;DHT22;42086;53.170;6.980;2022-09-09T13:13:11;25.20;99.90
56184;DHT22;42086;53.170;6.980;2022-09-09T13:15:38;25.80;99.90
56184;DHT22;42086;53.170;6.980;2022-09-09T13:18:10;26.10;99.90
56184;DHT22;42086;53.170;6.980;2022-09-09T13:20:37;25.70;99.20
56184;DHT22;42086;53.170;6.980;2022-09-09T13:23:03;25.80;99.90
56184;DHT22;42086;53.170;6.980;2022-09-09T13:25:29;25.30;98.90
56184;DHT22;42086;53.170;6.980;2022-09-09T13:27:58;24.70;98.60
56184;DHT22;42086;53.170;6.980;2022-09-09T13:30:37;25.20;99.70
56184;DHT22;42086;53.170;6.980;2022-09-09T13:35:45;25.50;95.20
56184;DHT22;42086;53.170;6.980;2022-09-09T13:38:14;24.80;95.70
56184;DHT22;42086;53.170;6.980;2022-09-09T13:40:52;24.60;96.30
56184;DHT22;42086;53.170;6.980;2022-09-09T13:43:22;24.40;97.60
56184;DHT22;42086;53.170;6.980;2022-09-09T13:45:59;24.30;97.90
56184;DHT22;42086;53.170;6.980;2022-09-09T13:48:27;23.70;99.10
56184;DHT22;42086;53.170;6.980;2022-09-09T13:51:01;24.10;99.40
56184;DHT22;42086;53.170;6.980;2022-09-09T13:53:27;23.50;99.70
56184;DHT22;42086;53.170;6.980;2022-09-09T13:55:54;23.30;99.90
56184;DHT22;42086;53.170;6.980;2022-09-09T13:58:20;22.90;99.90
56184;DHT22;42086;53.170;6.980;2022-09-09T14:00:47;22.60;99.90
56184;DHT22;42086;53.170;6.980;2022-09-09T14:03:13;22.30;99.90
56184;DHT22;42086;53.170;6.980;2022-09-09T14:05:39;22.00;99.90
56184;DHT22;42086;53.170;6.980;2022-09-09T14:08:06;21.60;99.90
56184;DHT22;42086;53.170;6.980;2022-09-09T14:10:33;21.40;99.90
56184;DHT22;42086;53.170;6.980;2022-09-09T14:13:02;21.10;99.90
56184;DHT22;42086;53.170;6.980;2022-09-09T14:15:28;20.80;99.90
56184;DHT22;42086;53.170;6.980;2022-09-09T14:17:54;20.70;99.90
56184;DHT22;42086;53.170;6.980;2022-09-09T14:20:20;20.60;99.90
56184;DHT22;42086;53.170;6.980;2022-09-09T14:22:46;20.40;99.90
56184;DHT22;42086;53.170;6.980;2022-09-09T14:25:12;20.10;99.90
56184;DHT22;42086;53.170;6.980;2022-09-09T14:27:39;19.90;99.90
56184;DHT22;42086;53.170;6.980;2022-09-09T14:30:06;19.60;99.90
56184;DHT22;42086;53.170;6.980;2022-09-09T14:32:32;19.30;99.90
56184;DHT22;42086;53.170;6.980;2022-09-09T14:34:58;19.20;99.90
56184;DHT22;42086;53.170;6.980;2022-09-09T14:37:24;19.00;99.90
56184;DHT22;42086;53.170;6.980;2022-09-09T14:39:51;19.00;99.90
56184;DHT22;42086;53.170;6.980;2022-09-09T14:42:17;19.20;99.90
56184;DHT22;42086;53.170;6.980;2022-09-09T14:44:44;19.40;99.90
56184;DHT22;42086;53.170;6.980;2022-09-09T14:47:09;19.40;99.90
56184;DHT22;42086;53.170;6.980;2022-09-09T14:49:36;19.30;99.90
56184;DHT22;42086;53.170;6.980;2022-09-09T14:52:04;19.30;99.90
56184;DHT22;42086;53.170;6.980;2022-09-09T14:54:31;19.20;99.90
56184;DHT22;42086;53.170;6.980;2022-09-09T14:56:58;19.20;99.90
56184;DHT22;42086;53.170;6.980;2022-09-09T14:59:24;19.20;99.90
56184;DHT22;42086;53.170;6.980;2022-09-09T15:01:50;19.10;99.90
56184;DHT22;42086;53.170;6.980;2022-09-09T15:04:16;19.00;99.90
56184;DHT22;42086;53.170;6.980;2022-09-09T15:06:43;18.90;99.90
56184;DHT22;42086;53.170;6.980;2022-09-09T15:09:12;18.90;99.90
56184;DHT22;42086;53.170;6.980;2022-09-09T15:11:38;19.00;99.90
56184;DHT22;42086;53.170;6.980;2022-09-09T15:14:06;19.10;99.90
56184;DHT22;42086;53.170;6.980;2022-09-09T15:16:32;19.10;99.90
56184;DHT22;42086;53.170;6.980;2022-09-09T15:18:59;19.20;99.90
56184;DHT22;42086;53.170;6.980;2022-09-09T15:21:31;19.00;99.90
56184;DHT22;42086;53.170;6.980;2022-09-09T15:23:57;19.00;99.90
56184;DHT22;42086;53.170;6.980;2022-09-09T15:26:24;18.90;99.90
56184;DHT22;42086;53.170;6.980;2022-09-09T15:28:51;18.80;99.90
56184;DHT22;42086;53.170;6.980;2022-09-09T15:31:25;18.60;99.90
56184;DHT22;42086;53.170;6.980;2022-09-09T15:33:53;18.60;99.90
56184;DHT22;42086;53.170;6.980;2022-09-09T15:36:27;18.50;99.90
56184;DHT22;42086;53.170;6.980;2022-09-09T15:38:54;18.40;99.90
56184;DHT22;42086;53.170;6.980;2022-09-09T15:41:21;18.40;99.90
56184;DHT22;42086;53.170;6.980;2022-09-09T15:43:50;18.50;99.90
56184;DHT22;42086;53.170;6.980;2022-09-09T15:48:56;18.60;99.90
56184;DHT22;42086;53.170;6.980;2022-09-09T15:51:23;18.70;99.90
56184;DHT22;42086;53.170;6.980;2022-09-09T15:53:58;18.90;99.90
56184;DHT22;42086;53.170;6.980;2022-09-09T15:56:25;18.90;99.90
56184;DHT22;42086;53.170;6.980;2022-09-09T15:58:52;19.00;99.90
56184;DHT22;42086;53.170;6.980;2022-09-09T16:01:18;19.40;99.90
56184;DHT22;42086;53.170;6.980;2022-09-09T16:03:45;19.70;99.90
56184;DHT22;42086;53.170;6.980;2022-09-09T16:06:13;20.10;99.90
56184;DHT22;42086;53.170;6.980;2022-09-09T16:08:41;20.30;99.90
56184;DHT22;42086;53.170;6.980;2022-09-09T16:11:13;20.20;99.90
56184;DHT22;42086;53.170;6.980;2022-09-09T16:13:41;20.30;99.90
56184;DHT22;42086;53.170;6.980;2022-09-09T16:16:09;20.70;99.90
56184;DHT22;42086;53.170;6.980;2022-09-09T16:18:36;20.90;99.90
56184;DHT22;42086;53.170;6.980;2022-09-09T16:21:03;21.10;99.90
56184;DHT22;42086;53.170;6.980;2022-09-09T16:23:34;21.20;99.90
56184;DHT22;42086;53.170;6.980;2022-09-09T16:26:01;21.40;99.90
56184;DHT22;42086;53.170;6.980;2022-09-09T16:28:27;21.20;99.90
56184;DHT22;42086;53.170;6.980;2022-09-09T16:30:53;21.20;99.90
56184;DHT22;42086;53.170;6.980;2022-09-09T16:33:19;21.10;99.90
56184;DHT22;42086;53.170;6.980;2022-09-09T16:35:45;21.00;99.90
56184;DHT22;42086;53.170;6.980;2022-09-09T16:38:11;20.80;99.90
56184;DHT22;42086;53.170;6.980;2022-09-09T16:40:38;20.40;99.90
56184;DHT22;42086;53.170;6.980;2022-09-09T16:43:05;20.40;99.90
56184;DHT22;42086;53.170;6.980;2022-09-09T16:45:32;20.50;99.90
56184;DHT22;42086;53.170;6.980;2022-09-09T16:47:59;20.30;99.90
56184;DHT22;42086;53.170;6.980;2022-09-09T16:50:26;20.10;99.90
56184;DHT22;42086;53.170;6.980;2022-09-09T16:52:52;20.10;99.90
56184;DHT22;42086;53.170;6.980;2022-09-09T16:55:18;20.00;99.90
56184;DHT22;42086;53.170;6.980;2022-09-09T16:57:46;20.00;99.90
56184;DHT22;42086;53.170;6.980;2022-09-09T17:00:15;19.80;99.90
56184;DHT22;42086;53.170;6.980;2022-09-09T17:02:44;19.60;99.90
56184;DHT22;42086;53.170;6.980;2022-09-09T17:05:11;19.50;99.90
56184;DHT22;42086;53.170;6.980;2022-09-09T17:07:38;19.40;99.90
56184;DHT22;42086;53.170;6.980;2022-09-09T17:10:05;19.30;99.90
56184;DHT22;42086;53.170;6.980;2022-09-09T17:12:32;19.20;99.90
56184;DHT22;42086;53.170;6.980;2022-09-09T17:14:58;19.10;99.90
56184;DHT22;42086;53.170;6.980;2022-09-09T17:17:25;19.00;99.90
56184;DHT22;42086;53.170;6.980;2022-09-09T17:19:52;18.90;99.90
56184;DHT22;42086;53.170;6.980;2022-09-09T17:22:18;18.70;99.90
56184;DHT22;42086;53.170;6.980;2022-09-09T17:24:46;18.60;99.90
56184;DHT22;42086;53.170;6.980;2022-09-09T17:27:12;18.50;99.90
56184;DHT22;42086;53.170;6.980;2022-09-09T17:29:38;18.50;99.90
56184;DHT22;42086;53.170;6.980;2022-09-09T17:32:05;18.40;99.90
56184;DHT22;42086;53.170;6.980;2022-09-09T17:34:33;18.30;99.90
56184;DHT22;42086;53.170;6.980;2022-09-09T17:36:59;18.30;99.90
56184;DHT22;42086;53.170;6.980;2022-09-09T17:39:25;18.20;99.90
56184;DHT22;42086;53.170;6.980;2022-09-09T17:41:51;18.20;99.90
56184;DHT22;42086;53.170;6.980;2022-09-09T17:44:20;18.10;99.90
56184;DHT22;42086;53.170;6.980;2022-09-09T17:46:46;18.10;99.90
56184;DHT22;42086;53.170;6.980;2022-09-09T17:49:14;18.10;99.90
56184;DHT22;42086;53.170;6.980;2022-09-09T17:51:41;18.00;99.90